Time;durP1;ratioP1;P1;durP2;ratioP2;P2;SDS_P1;SDS_P2;PMS_P1;PMS_P2;Temp;Humidity;BMP_temperature;BMP_pressure;BME280_temperature;BME280_humidity;BME280_pressure;Samples;Min_cycle;Max_cycle;Signal;HPM_P1;HPM_P2
2023/09/24 00:02:21;;;;;;;;;4.00;4.00;;;;;13.48;72.23;100557.91;5097958;28;8936;-60
2023/09/24 00:04:48;;;;;;;;;9.25;6.50;;;;;13.45;72.19;100559.00;5097034;28;8907;-60
2023/09/24 00:07:17;;;;;;;;;5.50;4.50;;;;;13.41;72.25;100560.25;5096221;28;8818;-57
2023/09/24 00:09:44;;;;;;;;;3.25;3.00;;;;;13.40;72.23;100573.72;5095692;28;8837;-56
2023/09/24 00:12:12;;;;;;;;;6.25;6.00;;;;;13.34;71.95;100571.53;5096572;28;8866;-59
2023/09/24 00:14:40;;;;;;;;;4.25;3.75;;;;;13.28;72.76;100572.06;5095449;28;8860;-59
2023/09/24 00:17:08;;;;;;;;;5.00;4.00;;;;;13.21;72.59;100571.69;5095122;28;8822;-59
2023/09/24 00:19:35;;;;;;;;;3.00;2.00;;;;;13.16;72.60;100571.22;5095076;28;8830;-60
2023/09/24 00:22:04;;;;;;;;;4.00;3.75;;;;;13.12;72.28;100566.22;5095831;28;8846;-59
2023/09/24 00:24:32;;;;;;;;;5.50;3.50;;;;;13.11;72.67;100570.75;5096425;28;8822;-57
2023/09/24 00:27:00;;;;;;;;;3.75;3.75;;;;;13.10;72.28;100565.50;5095925;28;8849;-59
2023/09/24 00:29:27;;;;;;;;;6.00;4.50;;;;;13.09;72.65;100572.69;5095873;28;8819;-57
2023/09/24 00:31:55;;;;;;;;;3.00;3.00;;;;;13.09;72.75;100571.81;5096225;28;8907;-56
2023/09/24 00:34:23;;;;;;;;;6.50;6.50;;;;;13.06;72.58;100570.25;5097410;28;8869;-58
2023/09/24 00:36:51;;;;;;;;;3.75;3.75;;;;;13.05;72.72;100573.91;5096567;28;8840;-58
2023/09/24 00:39:18;;;;;;;;;6.00;5.50;;;;;13.02;72.54;100576.81;5096724;28;8932;-58
2023/09/24 00:41:46;;;;;;;;;7.50;6.75;;;;;13.00;72.57;100580.59;5096475;28;8826;-57
2023/09/24 00:44:15;;;;;;;;;6.25;6.25;;;;;12.96;73.30;100582.66;5095671;28;8847;-57
2023/09/24 00:46:44;;;;;;;;;3.25;3.25;;;;;12.91;72.94;100583.97;5094639;28;8830;-57
2023/09/24 00:49:14;;;;;;;;;3.50;3.00;;;;;12.87;73.10;100596.72;5094911;28;8810;-57
2023/09/24 00:51:41;;;;;;;;;4.00;4.00;;;;;12.83;73.13;100597.09;5094880;28;8837;-60
2023/09/24 00:54:09;;;;;;;;;3.50;3.50;;;;;12.79;73.37;100608.97;5095450;28;8850;-59
2023/09/24 00:56:37;;;;;;;;;6.50;5.50;;;;;12.73;73.36;100601.41;5094184;28;8806;-60
2023/09/24 00:59:06;;;;;;;;;7.00;6.00;;;;;12.69;73.37;100600.81;5095109;28;8932;-59
2023/09/24 01:01:34;;;;;;;;;7.00;6.50;;;;;12.65;73.36;100602.03;5095880;28;8822;-59
2023/09/24 01:04:01;;;;;;;;;3.00;3.00;;;;;12.61;73.81;100607.75;5096044;28;8862;-59
2023/09/24 01:06:30;;;;;;;;;6.00;5.00;;;;;12.56;73.28;100600.09;5095282;28;8812;-59
2023/09/24 01:08:59;;;;;;;;;3.00;3.00;;;;;12.50;73.67;100600.53;5096473;28;8806;-60
2023/09/24 01:11:27;;;;;;;;;6.50;6.00;;;;;12.46;74.04;100599.06;5096589;28;8810;-60
2023/09/24 01:13:55;;;;;;;;;9.00;7.00;;;;;12.42;73.61;100586.94;5096382;28;8858;-59
2023/09/24 01:16:22;;;;;;;;;7.75;5.75;;;;;12.38;74.09;100590.78;5095916;28;8819;-59
2023/09/24 01:18:53;;;;;;;;;5.50;5.50;;;;;12.36;74.18;100591.88;5096059;28;8829;-59
2023/09/24 01:21:21;;;;;;;;;5.00;5.00;;;;;12.32;73.74;100595.75;5096381;28;8815;-58
2023/09/24 01:23:49;;;;;;;;;6.00;6.00;;;;;12.27;73.93;100590.78;5096087;28;8810;-58
2023/09/24 01:26:18;;;;;;;;;4.00;4.00;;;;;12.24;74.30;100595.50;5095670;28;8798;-59
2023/09/24 01:28:47;;;;;;;;;6.25;6.00;;;;;12.20;74.04;100592.22;5095629;28;8806;-60
2023/09/24 01:31:18;;;;;;;;;6.75;6.25;;;;;12.19;74.30;100605.66;5095546;28;8849;-57
2023/09/24 01:33:47;;;;;;;;;7.00;7.00;;;;;12.14;74.37;100614.03;5095836;28;8858;-56
2023/09/24 01:36:17;;;;;;;;;4.00;4.00;;;;;12.09;74.20;100610.84;5095823;28;8806;-58
2023/09/24 01:38:45;;;;;;;;;6.75;6.75;;;;;12.04;74.29;100618.38;5095590;28;8821;-59
2023/09/24 01:41:13;;;;;;;;;6.50;6.50;;;;;11.98;74.38;100617.94;5095223;28;8836;-58
2023/09/24 01:43:42;;;;;;;;;6.25;6.00;;;;;11.93;74.87;100619.25;5096269;28;8810;-59
2023/09/24 01:46:13;;;;;;;;;5.25;4.50;;;;;11.88;75.15;100616.06;5095196;28;8912;-59
2023/09/24 01:48:43;;;;;;;;;3.50;3.50;;;;;11.82;74.68;100611.22;5095464;28;8914;-59
2023/09/24 01:51:11;;;;;;;;;1.00;0.75;;;;;11.78;74.89;100621.25;5095221;28;8817;-58
2023/09/24 01:53:39;;;;;;;;;6.00;5.00;;;;;11.73;74.51;100623.41;5095114;28;8806;-59
2023/09/24 01:56:07;;;;;;;;;3.75;3.75;;;;;11.69;74.80;100619.25;5095349;28;8845;-59
2023/09/24 01:58:37;;;;;;;;;6.00;6.00;;;;;11.67;75.16;100621.19;5095403;28;8822;-59
2023/09/24 02:01:06;;;;;;;;;4.00;4.00;;;;;11.65;74.73;100620.44;5095677;28;8814;-58
2023/09/24 02:03:34;;;;;;;;;4.00;3.25;;;;;11.62;74.65;100620.69;5095161;28;8948;-59
2023/09/24 02:06:03;;;;;;;;;4.50;4.00;;;;;11.60;74.80;100622.59;5095814;28;8841;-59
2023/09/24 02:08:31;;;;;;;;;3.50;3.50;;;;;11.57;75.23;100627.25;5094509;28;9472;-58
2023/09/24 02:10:59;;;;;;;;;7.00;5.50;;;;;11.54;75.33;100617.66;5095330;28;8830;-58
2023/09/24 02:13:27;;;;;;;;;3.75;3.00;;;;;11.53;74.94;100623.97;5094404;28;8814;-57
2023/09/24 02:15:55;;;;;;;;;4.25;3.75;;;;;11.51;75.21;100628.56;5094504;28;8811;-59
2023/09/24 02:18:24;;;;;;;;;5.75;3.75;;;;;11.50;74.85;100629.53;5094933;28;8836;-59
2023/09/24 02:20:54;;;;;;;;;4.25;3.50;;;;;11.48;75.05;100627.94;5095323;28;8839;-59
2023/09/24 02:23:22;;;;;;;;;3.00;3.00;;;;;11.45;75.30;100626.34;5095021;28;8845;-59
2023/09/24 02:25:50;;;;;;;;;3.25;3.25;;;;;11.42;75.51;100623.03;5094631;28;8834;-59
2023/09/24 02:28:18;;;;;;;;;4.00;3.50;;;;;11.39;75.12;100629.44;5093237;28;8834;-58
2023/09/24 02:30:47;;;;;;;;;3.50;3.50;;;;;11.36;75.47;100627.00;5094329;28;8888;-59
2023/09/24 02:33:15;;;;;;;;;1.50;1.50;;;;;11.33;75.49;100640.56;5094033;28;8961;-59
2023/09/24 02:35:43;;;;;;;;;1.00;1.00;;;;;11.31;74.95;100631.81;5094297;28;8907;-58
2023/09/24 02:38:10;;;;;;;;;6.00;4.00;;;;;11.28;75.25;100633.84;5094019;28;8834;-56
2023/09/24 02:40:38;;;;;;;;;3.00;1.50;;;;;11.26;75.36;100635.78;5094453;28;8841;-59
2023/09/24 02:43:06;;;;;;;;;1.00;1.00;;;;;11.24;75.18;100640.38;5095428;28;9498;-57
2023/09/24 02:45:34;;;;;;;;;4.00;3.00;;;;;11.21;75.51;100638.75;5094701;28;8945;-59
2023/09/24 02:48:04;;;;;;;;;2.50;1.00;;;;;11.21;75.47;100643.25;5094554;28;8829;-59
2023/09/24 02:50:32;;;;;;;;;4.00;4.00;;;;;11.19;75.56;100648.69;5094399;28;8818;-57
2023/09/24 02:52:59;;;;;;;;;4.00;3.75;;;;;11.17;75.50;100647.97;5095306;28;8817;-59
2023/09/24 02:55:28;;;;;;;;;3.25;3.00;;;;;11.13;75.26;100643.78;5094618;28;9530;-59
2023/09/24 02:57:55;;;;;;;;;3.50;3.50;;;;;11.09;75.50;100642.28;5094404;28;8928;-59
2023/09/24 03:00:27;;;;;;;;;4.00;4.00;;;;;11.07;75.86;100643.38;5094723;28;8860;-59
2023/09/24 03:02:55;;;;;;;;;3.00;1.50;;;;;11.05;75.64;100647.94;5094099;28;8826;-59
2023/09/24 03:05:24;;;;;;;;;2.25;2.25;;;;;11.02;75.60;100651.72;5094538;28;8817;-59
2023/09/24 03:07:53;;;;;;;;;4.50;4.00;;;;;11.01;75.41;100654.47;5094169;28;8813;-57
2023/09/24 03:10:23;;;;;;;;;3.00;3.00;;;;;10.99;75.53;100649.22;5094872;28;8814;-58
2023/09/24 03:12:51;;;;;;;;;4.50;3.75;;;;;10.99;75.59;100656.41;5094914;28;9464;-58
2023/09/24 03:15:19;;;;;;;;;5.00;3.50;;;;;10.99;75.62;100665.22;5094738;28;8819;-57
2023/09/24 03:17:48;;;;;;;;;3.50;3.00;;;;;10.96;76.01;100662.78;5094114;28;8837;-57
2023/09/24 03:20:16;;;;;;;;;4.50;3.75;;;;;10.95;75.54;100666.41;5097899;28;8891;-59
2023/09/24 03:22:46;;;;;;;;;4.00;4.00;;;;;10.93;75.27;100660.31;5098340;28;9729;-56
2023/09/24 03:25:16;;;;;;;;;3.50;3.50;;;;;10.89;76.28;100666.84;5098437;28;9589;-58
2023/09/24 03:27:45;;;;;;;;;3.25;3.25;;;;;10.88;75.42;100672.25;5098087;28;9534;-58
2023/09/24 03:30:13;;;;;;;;;6.00;5.50;;;;;10.85;75.72;100672.47;5098440;28;8830;-57
2023/09/24 03:32:41;;;;;;;;;6.75;5.50;;;;;10.80;75.76;100666.59;5097606;28;8799;-59
2023/09/24 03:35:10;;;;;;;;;4.00;4.00;;;;;10.76;75.46;100671.28;5098814;28;8865;-56
2023/09/24 03:37:43;;;;;;;;;3.50;3.00;;;;;10.74;76.43;100672.34;5098616;28;9534;-56
2023/09/24 03:40:11;;;;;;;;;3.50;3.50;;;;;10.71;75.97;100677.91;5098369;28;8798;-58
2023/09/24 03:42:39;;;;;;;;;3.00;3.00;;;;;10.68;75.98;100675.44;5098471;28;8957;-56
2023/09/24 03:45:06;;;;;;;;;3.75;3.75;;;;;10.64;76.12;100682.81;5098825;28;8853;-57
2023/09/24 03:47:34;;;;;;;;;4.00;4.00;;;;;10.62;75.91;100684.69;5097057;28;8834;-56
2023/09/24 03:50:01;;;;;;;;;6.00;6.00;;;;;10.62;75.82;100687.34;5098745;28;8826;-57
2023/09/24 03:52:30;;;;;;;;;3.00;3.00;;;;;10.62;75.69;100691.84;5097420;28;8807;-58
2023/09/24 03:54:59;;;;;;;;;3.75;2.50;;;;;10.61;76.34;100693.66;5097147;28;8939;-58
2023/09/24 03:57:28;;;;;;;;;5.50;4.00;;;;;10.60;76.04;100702.59;5098076;28;8825;-58
2023/09/24 03:59:56;;;;;;;;;3.50;3.00;;;;;10.60;76.09;100701.72;5097887;28;8853;-56
2023/09/24 04:02:24;;;;;;;;;3.00;3.00;;;;;10.58;76.01;100704.53;5097632;28;8822;-57
2023/09/24 04:04:51;;;;;;;;;3.50;3.50;;;;;10.56;76.41;100700.25;5097969;28;8888;-59
2023/09/24 04:07:19;;;;;;;;;6.75;6.00;;;;;10.53;76.12;100711.94;5097444;28;8961;-57
2023/09/24 04:09:47;;;;;;;;;5.00;5.00;;;;;10.50;75.95;100712.19;5097510;28;8799;-56
2023/09/24 04:12:15;;;;;;;;;5.00;5.00;;;;;10.46;76.06;100709.81;5097132;28;8887;-58
2023/09/24 04:14:42;;;;;;;;;5.50;5.00;;;;;10.43;76.14;100713.53;5097633;28;8822;-58
2023/09/24 04:17:10;;;;;;;;;4.50;4.50;;;;;10.40;76.38;100721.72;5096551;28;8944;-58
2023/09/24 04:19:38;;;;;;;;;4.00;3.75;;;;;10.38;76.24;100723.63;5097060;28;9543;-59
2023/09/24 04:22:07;;;;;;;;;3.50;3.00;;;;;10.35;76.29;100737.16;5097794;28;8819;-59
2023/09/24 04:24:36;;;;;;;;;2.50;2.50;;;;;10.34;76.34;100727.47;5097829;28;8822;-58
2023/09/24 04:27:04;;;;;;;;;4.00;3.50;;;;;10.34;76.60;100731.91;5097663;28;8962;-58
2023/09/24 04:29:32;;;;;;;;;6.00;6.00;;;;;10.33;76.39;100738.22;5097800;28;8860;-59
2023/09/24 04:31:59;;;;;;;;;5.00;5.00;;;;;10.32;76.40;100742.66;5097433;28;8830;-59
2023/09/24 04:34:27;;;;;;;;;7.00;7.00;;;;;10.31;76.43;100742.78;5097133;28;8832;-59
2023/09/24 04:36:54;;;;;;;;;4.25;3.25;;;;;10.31;76.30;100750.78;5097137;28;8819;-59
2023/09/24 04:39:23;;;;;;;;;6.50;6.00;;;;;10.30;76.27;100757.03;5096870;28;8831;-59
2023/09/24 04:41:51;;;;;;;;;7.00;6.50;;;;;10.28;76.65;100743.84;5097244;28;8820;-58
2023/09/24 04:44:19;;;;;;;;;6.00;5.50;;;;;10.24;76.20;100763.59;5097183;28;8827;-59
2023/09/24 04:46:46;;;;;;;;;6.50;5.50;;;;;10.22;76.25;100757.53;5096906;28;8808;-57
2023/09/24 04:49:14;;;;;;;;;1.00;1.00;;;;;10.18;76.19;100761.34;5097273;28;8951;-59
2023/09/24 04:51:42;;;;;;;;;6.25;5.00;;;;;10.13;76.65;100766.13;5096975;28;8849;-59
2023/09/24 04:54:09;;;;;;;;;7.50;7.00;;;;;10.09;77.01;100764.59;5097463;28;8818;-59
2023/09/24 04:56:38;;;;;;;;;6.00;6.00;;;;;10.06;76.89;100775.44;5096487;28;8940;-59
2023/09/24 04:59:05;;;;;;;;;4.00;4.00;;;;;10.05;76.92;100773.75;5096506;28;8816;-59
2023/09/24 05:01:33;;;;;;;;;4.00;3.00;;;;;10.01;76.58;100769.53;5096886;28;8825;-59
2023/09/24 05:04:02;;;;;;;;;4.50;2.50;;;;;9.99;76.74;100768.78;5096213;28;8846;-59
2023/09/24 05:06:32;;;;;;;;;6.00;6.00;;;;;9.95;76.81;100780.56;5096108;28;8840;-59
2023/09/24 05:08:59;;;;;;;;;3.00;3.00;;;;;9.93;77.15;100782.47;5095613;28;8838;-58
2023/09/24 05:11:27;;;;;;;;;3.75;3.75;;;;;9.91;76.74;100779.06;5094953;28;8830;-59
2023/09/24 05:13:55;;;;;;;;;8.75;7.50;;;;;9.89;76.89;100786.28;5095569;28;8906;-58
2023/09/24 05:16:22;;;;;;;;;5.00;5.00;;;;;9.86;77.03;100791.78;5095558;28;8833;-59
2023/09/24 05:18:50;;;;;;;;;6.00;6.00;;;;;9.82;76.93;100792.09;5095012;28;8818;-56
2023/09/24 05:21:18;;;;;;;;;6.00;4.00;;;;;9.80;76.87;100791.34;5096345;28;8814;-59
2023/09/24 05:23:46;;;;;;;;;4.50;3.75;;;;;9.78;77.13;100802.06;5096096;28;8810;-56
2023/09/24 05:26:14;;;;;;;;;3.25;3.00;;;;;9.77;76.88;100795.03;5095879;28;8850;-57
2023/09/24 05:28:42;;;;;;;;;4.25;3.75;;;;;9.76;76.97;100806.63;5095648;28;8823;-58
2023/09/24 05:31:09;;;;;;;;;3.00;2.50;;;;;9.75;77.04;100798.72;5095815;28;8853;-58
2023/09/24 05:33:38;;;;;;;;;5.00;5.00;;;;;9.76;77.10;100792.47;5095825;28;8846;-58
2023/09/24 05:36:08;;;;;;;;;8.00;8.00;;;;;9.76;76.93;100801.31;5095644;28;8899;-57
2023/09/24 05:38:36;;;;;;;;;6.25;5.75;;;;;9.76;76.85;100809.28;5096011;28;9479;-58
2023/09/24 05:41:05;;;;;;;;;6.50;6.00;;;;;9.76;76.46;100808.41;5095583;28;8836;-57
2023/09/24 05:43:33;;;;;;;;;6.25;6.25;;;;;9.78;76.89;100807.38;5094620;28;8810;-58
2023/09/24 05:46:01;;;;;;;;;4.50;4.00;;;;;9.81;76.70;100809.00;5095595;28;8845;-56
2023/09/24 05:48:29;;;;;;;;;4.25;4.25;;;;;9.84;76.71;100812.31;5095229;28;8809;-56
2023/09/24 05:50:57;;;;;;;;;6.50;5.00;;;;;9.88;76.67;100810.31;5095107;28;8818;-58
2023/09/24 05:53:25;;;;;;;;;8.50;7.50;;;;;9.92;76.53;100810.03;5095053;28;8814;-56
2023/09/24 05:55:53;;;;;;;;;8.00;8.00;;;;;9.97;76.17;100810.59;5095099;28;8838;-58
2023/09/24 05:58:23;;;;;;;;;6.00;4.00;;;;;10.01;76.29;100812.09;5095113;28;8849;-58
2023/09/24 06:00:51;;;;;;;;;8.50;8.00;;;;;10.05;76.00;100811.00;5094645;28;8841;-58
2023/09/24 06:03:19;;;;;;;;;10.00;8.25;;;;;10.09;76.18;100817.81;5095270;28;8984;-58
2023/09/24 06:05:47;;;;;;;;;15.25;12.25;;;;;10.13;75.92;100813.16;5094852;28;8819;-57
2023/09/24 06:08:14;;;;;;;;;9.00;9.00;;;;;10.19;76.06;100810.97;5093846;28;8830;-57
2023/09/24 06:10:42;;;;;;;;;10.00;9.50;;;;;10.25;75.58;100817.72;5094272;28;8864;-58
2023/09/24 06:13:11;;;;;;;;;7.50;7.00;;;;;10.32;75.63;100819.88;5093894;28;8852;-59
2023/09/24 06:15:39;;;;;;;;;11.00;9.50;;;;;10.40;75.21;100822.88;5094148;28;8826;-58
2023/09/24 06:18:06;;;;;;;;;10.00;9.50;;;;;10.50;75.48;100817.81;5093460;28;8837;-59
2023/09/24 06:20:35;;;;;;;;;13.00;13.00;;;;;10.58;75.38;100835.03;5094682;28;8814;-58
2023/09/24 06:23:03;;;;;;;;;7.25;7.00;;;;;10.69;74.72;100829.81;5094276;28;8922;-59
2023/09/24 06:25:30;;;;;;;;;9.75;9.50;;;;;10.80;74.58;100835.31;5093594;28;8814;-56
2023/09/24 06:27:58;;;;;;;;;8.75;8.50;;;;;10.88;74.65;100838.31;5093532;28;8850;-57
2023/09/24 06:30:26;;;;;;;;;8.50;8.00;;;;;10.95;74.10;100846.75;5093849;28;8825;-59
2023/09/24 06:32:53;;;;;;;;;7.25;6.25;;;;;10.97;74.17;100856.34;5093839;28;9480;-56
2023/09/24 06:35:21;;;;;;;;;10.00;9.50;;;;;10.99;74.63;100845.59;5093664;28;8826;-57
2023/09/24 06:37:49;;;;;;;;;11.00;9.00;;;;;11.02;74.79;100854.25;5094508;28;8842;-58
2023/09/24 06:40:16;;;;;;;;;10.50;7.50;;;;;11.09;74.24;100857.34;5093735;28;9768;-57
2023/09/24 06:42:45;;;;;;;;;8.50;7.75;;;;;11.18;74.16;100862.94;5093593;28;8852;-59
2023/09/24 06:45:13;;;;;;;;;11.00;9.75;;;;;11.28;73.94;100855.13;5093969;28;8957;-59
2023/09/24 06:47:41;;;;;;;;;10.50;9.75;;;;;11.34;73.55;100855.59;5094010;28;8814;-58
2023/09/24 06:50:10;;;;;;;;;5.50;3.25;;;;;11.40;73.87;100859.66;5093627;28;8976;-58
2023/09/24 06:52:39;;;;;;;;;8.50;7.50;;;;;11.45;73.63;100869.03;5094946;28;8964;-57
2023/09/24 06:55:08;;;;;;;;;10.00;8.50;;;;;11.50;73.64;100864.25;5096854;28;8844;-56
2023/09/24 06:57:37;;;;;;;;;6.75;6.75;;;;;11.58;73.70;100874.41;5098338;28;8910;-58
2023/09/24 07:00:05;;;;;;;;;10.50;9.00;;;;;11.63;73.38;100873.16;5097925;28;8822;-58
2023/09/24 07:02:32;;;;;;;;;7.25;6.75;;;;;11.68;73.35;100873.66;5098179;28;8814;-56
2023/09/24 07:05:00;;;;;;;;;7.00;7.00;;;;;11.77;73.40;100872.19;5098492;28;8933;-57
2023/09/24 07:07:29;;;;;;;;;9.25;8.00;;;;;11.84;72.96;100876.97;5097962;28;8807;-57
2023/09/24 07:09:58;;;;;;;;;9.00;9.00;;;;;11.93;72.71;100871.84;5098318;28;8814;-58
2023/09/24 07:12:26;;;;;;;;;6.50;6.50;;;;;12.03;72.99;100872.06;5098445;28;8826;-57
2023/09/24 07:14:53;;;;;;;;;12.00;9.67;;;;;12.14;72.85;100875.69;5097983;28;8806;-57
2023/09/24 07:17:21;;;;;;;;;7.00;7.00;;;;;12.25;72.46;100883.78;5097945;28;8830;-57
2023/09/24 07:19:49;;;;;;;;;9.00;7.00;;;;;12.37;72.11;100874.03;5097586;28;9068;-58
2023/09/24 07:22:21;;;;;;;;;5.00;5.00;;;;;12.48;72.34;100884.81;5098267;28;8822;-57
2023/09/24 07:24:48;;;;;;;;;12.00;10.00;;;;;12.57;71.99;100873.44;5097784;28;8814;-56
2023/09/24 07:27:16;;;;;;;;;5.75;5.25;;;;;12.68;71.53;100879.72;5097240;28;8802;-57
2023/09/24 07:29:45;;;;;;;;;6.00;6.00;;;;;12.81;71.70;100885.00;5097580;28;8869;-56
2023/09/24 07:32:14;;;;;;;;;9.00;9.00;;;;;12.95;71.67;100885.75;5097663;28;8832;-57
2023/09/24 07:34:42;;;;;;;;;8.00;7.00;;;;;13.08;70.90;100888.34;5097308;28;8818;-58
2023/09/24 07:37:09;;;;;;;;;6.75;6.50;;;;;13.24;71.13;100888.91;5096846;28;8849;-58
2023/09/24 07:39:42;;;;;;;;;5.50;5.50;;;;;13.39;70.55;100883.25;5096969;28;8814;-59
2023/09/24 07:42:09;;;;;;;;;12.00;11.00;;;;;13.54;70.45;100889.25;5096827;28;8825;-59
2023/09/24 07:44:37;;;;;;;;;9.00;9.00;;;;;13.69;70.21;100893.41;5097189;28;8816;-58
2023/09/24 07:47:05;;;;;;;;;9.75;9.50;;;;;13.84;69.95;100892.22;5096680;28;8933;-59
2023/09/24 07:49:32;;;;;;;;;7.50;7.00;;;;;13.98;69.88;100892.84;5096773;28;8826;-57
2023/09/24 07:52:00;;;;;;;;;10.00;9.00;;;;;14.14;69.72;100892.50;5097098;28;8826;-59
2023/09/24 07:54:28;;;;;;;;;8.00;7.00;;;;;14.28;69.71;100889.63;5096821;28;8830;-58
2023/09/24 07:56:56;;;;;;;;;9.00;9.00;;;;;14.42;69.34;100889.38;5097072;28;8842;-59
2023/09/24 07:59:24;;;;;;;;;9.00;7.50;;;;;14.56;69.07;100889.13;5095825;28;8899;-59
2023/09/24 08:01:52;;;;;;;;;11.00;10.00;;;;;14.69;69.22;100893.34;5096202;28;9567;-58
2023/09/24 08:04:19;;;;;;;;;9.75;8.50;;;;;14.77;68.60;100895.38;5096397;28;8826;-59
2023/09/24 08:06:47;;;;;;;;;8.50;7.00;;;;;14.84;68.72;100893.91;5096632;28;9479;-58
2023/09/24 08:09:15;;;;;;;;;6.50;6.00;;;;;14.92;68.81;100888.78;5096079;28;8828;-59
2023/09/24 08:11:53;;;;;;;;;4.50;4.50;;;;;15.00;69.21;100902.41;5096128;28;8814;-57
2023/09/24 08:14:22;;;;;;;;;9.75;8.00;;;;;15.07;69.09;100896.41;5095862;28;8822;-56
2023/09/24 08:16:50;;;;;;;;;8.50;8.50;;;;;15.15;68.68;100895.75;5096145;28;8834;-59
2023/09/24 08:19:18;;;;;;;;;7.50;6.25;;;;;15.26;68.68;100895.75;5094927;28;8810;-59
2023/09/24 08:21:45;;;;;;;;;6.25;5.25;;;;;15.36;68.59;100888.63;5095684;28;8952;-59
2023/09/24 08:24:14;;;;;;;;;8.00;6.75;;;;;15.47;68.84;100885.91;5095361;28;8806;-59
2023/09/24 08:26:42;;;;;;;;;6.25;6.25;;;;;15.55;68.39;100888.81;5096314;28;8925;-59
2023/09/24 08:29:09;;;;;;;;;9.25;9.25;;;;;15.66;67.97;100886.03;5095499;28;8822;-59
2023/09/24 08:31:37;;;;;;;;;9.50;7.00;;;;;15.80;68.59;100888.41;5094851;28;8941;-58
2023/09/24 08:34:05;;;;;;;;;6.75;6.00;;;;;15.98;67.53;100884.13;5095982;28;8873;-58
2023/09/24 08:36:33;;;;;;;;;6.00;5.00;;;;;16.23;67.12;100889.91;5094993;28;8850;-59
2023/09/24 08:39:03;;;;;;;;;6.50;4.50;;;;;16.51;66.63;100890.06;5094779;28;8937;-57
2023/09/24 08:41:33;;;;;;;;;5.00;5.00;;;;;16.81;66.66;100884.63;5095066;28;8831;-59
2023/09/24 08:44:01;;;;;;;;;5.40;3.00;;;;;17.15;66.05;100890.50;5094352;28;8982;-58
2023/09/24 08:46:29;;;;;;;;;6.00;4.80;;;;;17.45;65.27;100891.22;5092548;28;8830;-58
2023/09/24 08:48:58;;;;;;;;;3.40;3.00;;;;;17.67;65.40;100890.06;5093791;28;8945;-57
2023/09/24 08:51:26;;;;;;;;;4.00;4.00;;;;;17.77;65.08;100880.13;5094342;28;8875;-59
2023/09/24 08:53:53;;;;;;;;;4.00;3.60;;;;;17.81;65.22;100885.09;5094700;28;8818;-60
2023/09/24 08:56:23;;;;;;;;;4.00;3.40;;;;;17.81;65.19;100873.44;5094881;28;8916;-57
2023/09/24 08:58:51;;;;;;;;;3.00;3.00;;;;;17.76;65.69;100871.19;5094536;28;8845;-60
2023/09/24 09:01:18;;;;;;;;;3.00;2.60;;;;;17.70;65.44;100873.63;5094831;28;8868;-57
2023/09/24 09:03:47;;;;;;;;;3.60;3.00;;;;;17.67;65.52;100876.59;5094895;28;8835;-58
2023/09/24 09:06:15;;;;;;;;;3.00;3.00;;;;;17.67;65.70;100866.66;5095092;28;9834;-58
2023/09/24 09:08:43;;;;;;;;;1.40;1.00;;;;;17.68;65.20;100876.44;5094663;28;8818;-59
2023/09/24 09:11:11;;;;;;;;;3.40;3.00;;;;;17.69;65.11;100875.44;5094639;28;8826;-58
2023/09/24 09:13:39;;;;;;;;;2.60;2.60;;;;;17.69;65.35;100877.31;5094555;28;8818;-58
2023/09/24 09:16:08;;;;;;;;;1.00;1.00;;;;;17.73;65.06;100882.25;5093789;28;8838;-58
2023/09/24 09:18:36;;;;;;;;;3.00;1.00;;;;;17.76;65.44;100879.28;5079999;28;8841;-56
2023/09/24 09:21:04;;;;;;;;;2.20;1.00;;;;;17.81;65.38;100874.31;5094864;28;9593;-57
2023/09/24 09:23:32;;;;;;;;;2.60;2.60;;;;;17.88;64.92;100880.81;5094355;28;8857;-58
2023/09/24 09:26:01;;;;;;;;;2.60;2.60;;;;;17.97;64.71;100870.97;5094631;28;8838;-57
2023/09/24 09:28:31;;;;;;;;;1.00;1.00;;;;;18.00;64.56;100874.25;5094521;28;8836;-58
2023/09/24 09:30:58;;;;;;;;;0.40;0.40;;;;;18.02;64.87;100869.56;5094470;28;8956;-57
2023/09/24 09:33:26;;;;;;;;;1.00;1.00;;;;;18.06;64.38;100870.97;5093144;28;9561;-58
2023/09/24 09:35:55;;;;;;;;;1.40;1.40;;;;;18.10;64.02;100866.13;5092914;28;8814;-57
2023/09/24 09:38:23;;;;;;;;;0.00;0.00;;;;;18.18;64.26;100866.25;5092363;28;8864;-58
2023/09/24 09:40:50;;;;;;;;;1.00;1.00;;;;;18.24;63.63;100858.44;5092543;28;8834;-57
2023/09/24 09:43:18;;;;;;;;;3.00;3.00;;;;;18.32;64.28;100855.88;5092887;28;8834;-59
2023/09/24 09:45:46;;;;;;;;;1.00;1.00;;;;;18.41;63.46;100854.09;5093933;28;8829;-58
2023/09/24 09:48:14;;;;;;;;;0.20;0.00;;;;;18.54;63.54;100844.69;5092282;28;8840;-58
2023/09/24 09:50:42;;;;;;;;;1.00;1.00;;;;;18.75;62.80;100842.53;5092573;28;8834;-57
2023/09/24 09:53:10;;;;;;;;;1.00;1.00;;;;;19.13;62.10;100836.84;5093453;28;8875;-58
2023/09/24 09:55:39;;;;;;;;;1.40;1.40;;;;;19.59;60.77;100835.78;5093698;28;8826;-57
2023/09/24 09:58:07;;;;;;;;;1.00;1.00;;;;;20.14;60.14;100838.03;5092508;28;8834;-58
2023/09/24 10:00:50;;;;;;;;;1.00;1.00;;;;;20.91;57.72;100830.56;5093248;28;8810;-58
2023/09/24 10:03:18;;;;;;;;;1.00;1.00;;;;;21.77;55.47;100828.09;5092704;28;8972;-59
2023/09/24 10:05:46;;;;;;;;;1.00;1.00;;;;;22.69;55.17;100831.03;5093245;28;8814;-58
2023/09/24 10:08:15;;;;;;;;;1.00;1.00;;;;;23.19;54.38;100823.25;5093319;28;8920;-59
2023/09/24 10:10:43;;;;;;;;;0.00;0.00;;;;;23.46;53.57;100825.44;5093300;28;8810;-58
2023/09/24 10:13:11;;;;;;;;;1.00;1.00;;;;;23.69;53.81;100816.22;5092673;28;8817;-58
2023/09/24 10:15:39;;;;;;;;;0.40;0.40;;;;;24.09;52.94;100817.69;5092206;28;8881;-58
2023/09/24 10:18:07;;;;;;;;;1.00;0.80;;;;;24.38;53.07;100812.22;5091813;28;8829;-58
2023/09/24 10:20:35;;;;;;;;;1.00;1.00;;;;;24.80;52.54;100815.94;5092790;28;8915;-58
2023/09/24 10:23:03;;;;;;;;;1.80;1.40;;;;;25.28;52.07;100819.84;5092869;28;8872;-58
2023/09/24 10:25:30;;;;;;;;;0.80;0.80;;;;;25.96;50.56;100820.91;5091333;28;8818;-58
2023/09/24 10:27:58;;;;;;;;;1.40;1.00;;;;;26.30;50.36;100815.44;5091322;28;8829;-58
2023/09/24 10:30:36;;;;;;;;;1.00;1.00;;;;;26.27;50.13;100816.66;5088889;28;8822;-59
2023/09/24 10:33:04;;;;;;;;;0.00;0.00;;;;;26.20;50.89;100813.06;5092036;28;8865;-58
2023/09/24 10:35:32;;;;;;;;;0.80;0.40;;;;;26.21;50.79;100814.78;5092266;28;8825;-59
2023/09/24 10:37:59;;;;;;;;;0.00;0.00;;;;;26.30;50.65;100807.25;5091873;28;8834;-59
2023/09/24 10:40:28;;;;;;;;;1.00;1.00;;;;;26.21;50.58;100811.19;5091374;28;8903;-58
2023/09/24 10:42:55;;;;;;;;;0.40;0.40;;;;;25.95;50.82;100806.41;5092163;28;8826;-58
2023/09/24 10:45:23;;;;;;;;;1.00;1.00;;;;;25.48;52.36;100801.81;5093067;28;8927;-58
2023/09/24 10:47:51;;;;;;;;;1.00;1.00;;;;;25.06;53.15;100804.50;5092438;28;8817;-57
2023/09/24 10:50:19;;;;;;;;;1.00;1.00;;;;;24.80;53.46;100801.50;5091628;28;8974;-58
2023/09/24 10:52:47;;;;;;;;;1.00;1.00;;;;;24.71;52.50;100808.09;5092644;28;8821;-59
2023/09/24 10:55:15;;;;;;;;;1.40;1.00;;;;;24.67;52.60;100802.19;5092958;28;8883;-58
2023/09/24 10:57:49;;;;;;;;;1.20;1.20;;;;;24.40;53.09;100799.25;5092202;28;8842;-57
2023/09/24 11:00:17;;;;;;;;;1.00;0.40;;;;;23.86;54.01;100806.03;5091023;28;8849;-58
2023/09/24 11:02:46;;;;;;;;;1.00;1.00;;;;;23.40;54.80;100812.56;5090738;28;8815;-58
2023/09/24 11:05:14;;;;;;;;;1.00;1.00;;;;;23.13;55.35;100800.34;5090229;28;8915;-57
2023/09/24 11:07:43;;;;;;;;;0.00;0.00;;;;;23.11;55.05;100796.09;5090300;28;8826;-58
2023/09/24 11:10:11;;;;;;;;;0.80;0.60;;;;;23.13;54.84;100807.66;5090638;28;8842;-58
2023/09/24 11:12:40;;;;;;;;;0.80;0.80;;;;;23.03;54.44;100801.59;5090507;28;8865;-58
2023/09/24 11:15:10;;;;;;;;;1.00;1.00;;;;;22.79;54.95;100801.78;5090799;28;8919;-58
2023/09/24 11:17:43;;;;;;;;;1.40;1.40;;;;;22.66;54.98;100801.50;5088853;28;8869;-58
2023/09/24 11:20:11;;;;;;;;;2.00;1.80;;;;;22.95;53.95;100796.22;5090040;28;8853;-58
2023/09/24 11:22:42;;;;;;;;;0.00;0.00;;;;;23.35;53.45;100790.50;5090206;28;8891;-57
2023/09/24 11:25:10;;;;;;;;;1.00;0.00;;;;;24.02;51.67;100790.38;5090142;28;9642;-58
2023/09/24 11:27:40;;;;;;;;;1.00;0.20;;;;;24.75;49.99;100788.44;5092067;28;9480;-58
2023/09/24 11:30:08;;;;;;;;;2.80;1.00;;;;;25.60;48.52;100781.97;5090647;28;8810;-58
2023/09/24 11:32:35;;;;;;;;;0.40;0.40;;;;;26.35;47.36;100775.53;5091965;28;9515;-58
2023/09/24 11:35:03;;;;;;;;;1.60;0.80;;;;;27.05;46.92;100769.69;5090928;28;8880;-58
2023/09/24 11:37:31;;;;;;;;;1.00;1.00;;;;;27.89;45.71;100768.91;5090853;28;8814;-59
2023/09/24 11:39:59;;;;;;;;;1.00;1.00;;;;;28.70;44.53;100769.09;5091372;28;8829;-58